createdAt,value
2023-01-04T00:00:54.616Z,9.23
2023-01-04T00:01:54.653Z,9.26
2023-01-04T00:02:54.893Z,9.27
2023-01-04T00:03:54.904Z,9.31
2023-01-04T00:04:54.866Z,9.27
2023-01-04T00:05:54.960Z,9.24
2023-01-04T00:06:55.062Z,9.24
2023-01-04T00:07:55.159Z,9.23
2023-01-04T00:08:55.224Z,9.16
2023-01-04T00:09:55.315Z,9.17
2023-01-04T00:10:55.388Z,9.17
2023-01-04T00:11:55.460Z,9.17
2023-01-04T00:12:55.554Z,9.10
2023-01-04T00:13:55.637Z,9.00
2023-01-04T00:14:55.721Z,9.00
2023-01-04T00:15:55.895Z,9.04
2023-01-04T00:16:55.876Z,9.13
2023-01-04T00:17:55.993Z,9.20
2023-01-04T00:18:56.026Z,9.23
2023-01-04T00:19:56.098Z,9.24
2023-01-04T00:20:56.181Z,9.15
2023-01-04T00:21:56.277Z,9.15
2023-01-04T00:22:56.408Z,9.13
2023-01-04T00:23:56.459Z,9.12
2023-01-04T00:24:56.545Z,9.13
2023-01-04T00:25:56.619Z,9.17
2023-01-04T00:26:56.710Z,9.22
2023-01-04T00:27:56.814Z,9.24
2023-01-04T00:28:56.857Z,9.32
2023-01-04T00:29:56.956Z,9.31
2023-01-04T00:30:57.122Z,9.30
2023-01-04T00:31:57.143Z,9.35
2023-01-04T00:32:57.215Z,9.34
2023-01-04T00:33:57.330Z,9.31
2023-01-04T00:34:57.386Z,9.34
2023-01-04T00:35:57.457Z,9.35
2023-01-04T00:36:57.541Z,9.37
2023-01-04T00:37:57.627Z,9.41
2023-01-04T00:38:57.670Z,9.37
2023-01-04T00:39:57.749Z,9.37
2023-01-04T00:40:57.833Z,9.40
2023-01-04T00:41:59.684Z,9.37
2023-01-04T00:42:58.007Z,9.32
2023-01-04T00:43:58.071Z,9.30
2023-01-04T00:44:58.149Z,9.27
2023-01-04T00:45:58.273Z,9.30
2023-01-04T00:46:58.311Z,9.27
2023-01-04T00:47:58.431Z,9.24
2023-01-04T00:49:00.692Z,9.20
2023-01-04T00:49:58.575Z,9.20
2023-01-04T00:50:58.651Z,9.26
2023-01-04T00:51:58.751Z,9.23
2023-01-04T00:52:58.830Z,9.32
2023-01-04T00:53:58.916Z,9.38
2023-01-04T00:54:58.974Z,9.45
2023-01-04T00:55:59.065Z,9.42
2023-01-04T00:56:59.149Z,9.41
2023-01-04T00:57:59.261Z,9.48
2023-01-04T00:58:59.315Z,9.50
2023-01-04T00:59:59.386Z,9.53
2023-01-04T01:00:59.478Z,9.50
2023-01-04T01:01:59.649Z,9.49
2023-01-04T01:03:00.039Z,9.55
2023-01-04T01:03:59.792Z,9.49
2023-01-04T01:04:59.765Z,9.50
2023-01-04T01:05:59.837Z,9.53
2023-01-04T01:06:59.911Z,9.53
2023-01-04T01:08:00.007Z,9.44
2023-01-04T01:09:00.079Z,9.42
2023-01-04T01:10:00.223Z,9.45
2023-01-04T01:11:00.214Z,9.49
2023-01-04T01:12:00.285Z,9.52
2023-01-04T01:13:00.374Z,9.56
2023-01-04T01:14:00.452Z,9.63
2023-01-04T01:15:01.020Z,9.56
2023-01-04T01:16:00.677Z,9.59
2023-01-04T01:17:00.764Z,9.60
2023-01-04T01:18:00.780Z,9.58
2023-01-04T01:19:00.821Z,9.55
2023-01-04T01:20:00.910Z,9.49
2023-01-04T01:21:00.976Z,9.48
2023-01-04T01:22:01.046Z,9.52
2023-01-04T01:23:01.141Z,9.58
2023-01-04T01:24:01.252Z,9.59
2023-01-04T01:25:01.295Z,9.58
2023-01-04T01:26:01.363Z,9.56
2023-01-04T01:27:01.457Z,9.56
2023-01-04T01:28:01.546Z,9.50
2023-01-04T01:29:01.601Z,9.49
2023-01-04T01:30:01.699Z,9.45
2023-01-04T01:31:06.693Z,9.45
2023-01-04T01:32:02.002Z,9.50
2023-01-04T01:33:01.981Z,9.49
2023-01-04T01:34:02.056Z,9.52
2023-01-04T01:35:02.135Z,9.53
2023-01-04T01:36:02.229Z,9.56
2023-01-04T01:37:02.314Z,9.59
2023-01-04T01:38:02.425Z,9.59
2023-01-04T01:39:02.463Z,9.59
2023-01-04T01:40:02.536Z,9.56
2023-01-04T01:41:02.609Z,9.58
2023-01-04T01:42:02.707Z,9.59
2023-01-04T01:43:02.810Z,9.59
2023-01-04T01:44:02.882Z,9.58
2023-01-04T01:45:02.959Z,9.62
2023-01-04T01:46:03.155Z,9.68
2023-01-04T01:47:03.281Z,9.77
2023-01-04T01:48:03.197Z,9.81
2023-01-04T01:49:03.277Z,9.85
2023-01-04T01:50:03.329Z,9.86
2023-01-04T01:51:03.399Z,9.86
2023-01-04T01:52:03.466Z,9.88
2023-01-04T01:53:03.587Z,9.93
2023-01-04T01:54:03.643Z,9.92
2023-01-04T01:55:03.723Z,9.89
2023-01-04T01:56:03.797Z,9.92
2023-01-04T01:57:03.906Z,9.91
2023-01-04T01:58:03.994Z,9.93
2023-01-04T01:59:04.025Z,9.91
2023-01-04T02:00:04.157Z,9.88
2023-01-04T02:01:04.199Z,9.81
2023-01-04T02:02:04.429Z,9.85
2023-01-04T02:03:04.497Z,9.85
2023-01-04T02:04:04.582Z,9.86
2023-01-04T02:05:04.540Z,9.85
2023-01-04T02:06:04.636Z,9.81
2023-01-04T02:07:04.723Z,9.81
2023-01-04T02:08:04.819Z,9.81
2023-01-04T02:09:04.868Z,9.80
2023-01-04T02:10:04.969Z,9.81
2023-01-04T02:11:05.063Z,9.81
2023-01-04T02:12:05.129Z,9.80
2023-01-04T02:13:05.237Z,9.85
2023-01-04T02:14:05.307Z,9.85
2023-01-04T02:15:05.389Z,9.85
2023-01-04T02:16:05.532Z,9.85
2023-01-04T02:17:05.536Z,9.86
2023-01-04T02:18:05.650Z,9.88
2023-01-04T02:19:05.703Z,9.89
2023-01-04T02:20:05.773Z,9.93
2023-01-04T02:21:05.855Z,9.92
2023-01-04T02:22:05.952Z,9.92
2023-01-04T02:23:06.049Z,9.91
2023-01-04T02:24:06.119Z,9.91
2023-01-04T02:25:06.184Z,9.92
2023-01-04T02:26:06.289Z,9.88
2023-01-04T02:27:06.357Z,9.92
2023-01-04T02:28:06.481Z,9.93
2023-01-04T02:29:06.523Z,9.92
2023-01-04T02:30:06.605Z,9.91
2023-01-04T02:31:06.727Z,9.92
2023-01-04T02:32:06.754Z,9.92
2023-01-04T02:33:06.854Z,9.92
2023-01-04T02:34:06.918Z,9.89
2023-01-04T02:35:06.998Z,9.91
2023-01-04T02:36:07.086Z,9.88
2023-01-04T02:37:07.153Z,9.88
2023-01-04T02:38:07.268Z,9.89
2023-01-04T02:39:07.339Z,9.88
2023-01-04T02:40:07.424Z,9.89
2023-01-04T02:41:07.508Z,9.93
2023-01-04T02:42:07.602Z,9.92
2023-01-04T02:43:13.820Z,9.92
2023-01-04T02:44:07.755Z,9.88
2023-01-04T02:45:07.831Z,9.91
2023-01-04T02:46:08.009Z,9.91
2023-01-04T02:47:08.174Z,9.91
2023-01-04T02:48:08.092Z,9.93
2023-01-04T02:49:08.148Z,9.93
2023-01-04T02:50:08.225Z,9.93
2023-01-04T02:51:08.304Z,9.92
2023-01-04T02:52:08.402Z,9.93
2023-01-04T02:53:08.495Z,9.92
2023-01-04T02:54:08.582Z,9.93
2023-01-04T02:55:08.663Z,9.92
2023-01-04T02:56:08.759Z,9.91
2023-01-04T02:57:08.849Z,9.86
2023-01-04T02:58:08.976Z,9.88
2023-01-04T02:59:09.010Z,9.93
2023-01-04T03:00:09.114Z,9.92
2023-01-04T03:01:09.232Z,9.92
2023-01-04T03:02:09.504Z,9.95
2023-01-04T03:03:09.547Z,9.92
2023-01-04T03:04:09.548Z,9.89
2023-01-04T03:05:09.522Z,9.91
2023-01-04T03:06:09.611Z,9.93
2023-01-04T03:07:09.682Z,9.95
2023-01-04T03:08:09.792Z,9.92
2023-01-04T03:09:09.823Z,9.93
2023-01-04T03:10:09.951Z,9.95
2023-01-04T03:11:10.024Z,9.95
2023-01-04T03:12:10.111Z,9.93
2023-01-04T03:13:10.189Z,9.96
2023-01-04T03:14:33.079Z,9.95
2023-01-04T03:15:10.358Z,9.95
2023-01-04T03:16:10.460Z,9.96
2023-01-04T03:17:10.516Z,9.96
2023-01-04T03:18:10.603Z,9.98
2023-01-04T03:19:10.658Z,10.02
2023-01-04T03:20:10.746Z,9.99
2023-01-04T03:21:10.834Z,9.98
2023-01-04T03:22:10.906Z,9.95
2023-01-04T03:23:11.012Z,9.98
2023-01-04T03:24:11.075Z,9.98
2023-01-04T03:25:11.159Z,9.99
2023-01-04T03:26:11.239Z,9.99
2023-01-04T03:27:11.315Z,9.93
2023-01-04T03:28:11.412Z,9.93
2023-01-04T03:29:11.461Z,9.93
2023-01-04T03:30:11.557Z,9.93
2023-01-04T03:31:11.656Z,9.95
2023-01-04T03:32:11.729Z,9.96
2023-01-04T03:33:11.821Z,9.98
2023-01-04T03:34:11.905Z,9.93
2023-01-04T03:35:11.994Z,9.91
2023-01-04T03:36:12.080Z,9.93
2023-01-04T03:37:12.143Z,9.93
2023-01-04T03:38:12.238Z,9.91
2023-01-04T03:39:12.326Z,9.89
2023-01-04T03:40:12.400Z,9.89
2023-01-04T03:41:12.466Z,9.91
2023-01-04T03:42:12.541Z,9.92
2023-01-04T03:43:12.620Z,9.88
2023-01-04T03:44:12.665Z,9.91
2023-01-04T03:45:12.735Z,9.89
2023-01-04T03:46:12.930Z,9.91
2023-01-04T03:47:12.963Z,9.95
2023-01-04T03:48:12.994Z,9.92
2023-01-04T03:49:13.069Z,9.92
2023-01-04T03:50:13.151Z,9.93
2023-01-04T03:51:13.226Z,9.95
2023-01-04T03:52:13.299Z,9.92
2023-01-04T03:53:13.384Z,9.92
2023-01-04T03:54:13.426Z,9.92
2023-01-04T03:55:13.498Z,9.91
2023-01-04T03:56:13.556Z,9.95
2023-01-04T03:57:13.625Z,9.95
2023-01-04T03:58:13.719Z,9.98
2023-01-04T03:59:13.797Z,9.95
2023-01-04T04:00:13.868Z,9.93
2023-01-04T04:01:14.169Z,9.95
2023-01-04T04:02:14.256Z,9.93
2023-01-04T04:03:14.187Z,9.93
2023-01-04T04:04:14.301Z,9.95
2023-01-04T04:05:14.322Z,9.98
2023-01-04T04:06:14.402Z,9.99
2023-01-04T04:07:14.486Z,9.96
2023-01-04T04:08:14.575Z,9.95
2023-01-04T04:09:14.652Z,9.96
2023-01-04T04:10:14.733Z,9.96
2023-01-04T04:11:14.838Z,9.96
2023-01-04T04:12:14.945Z,9.96
2023-01-04T04:13:15.012Z,9.95
2023-01-04T04:14:15.056Z,9.96
2023-01-04T04:15:15.155Z,9.99
2023-01-04T04:16:15.327Z,9.98
2023-01-04T04:17:15.290Z,10.01
2023-01-04T04:18:15.404Z,9.98
2023-01-04T04:19:15.459Z,9.93
2023-01-04T04:20:15.528Z,9.91
2023-01-04T04:21:15.609Z,9.86
2023-01-04T04:22:15.684Z,9.89
2023-01-04T04:23:15.816Z,9.86
2023-01-04T04:24:15.858Z,9.85
2023-01-04T04:25:15.926Z,9.86
2023-01-04T04:26:16.015Z,9.85
2023-01-04T04:27:16.102Z,9.81
2023-01-04T04:28:16.196Z,9.80
2023-01-04T04:29:16.270Z,9.83
2023-01-04T04:30:16.339Z,9.85
2023-01-04T04:31:16.525Z,9.88
2023-01-04T04:32:16.617Z,9.89
2023-01-04T04:33:16.611Z,9.86
2023-01-04T04:34:16.663Z,9.81
2023-01-04T04:35:16.728Z,9.80
2023-01-04T04:36:16.810Z,9.80
2023-01-04T04:37:16.876Z,9.78
2023-01-04T04:38:16.974Z,9.77
2023-01-04T04:39:17.056Z,9.77
2023-01-04T04:40:17.131Z,9.74
2023-01-04T04:41:17.223Z,9.75
2023-01-04T04:42:17.308Z,9.78
2023-01-04T04:43:17.397Z,9.80
2023-01-04T04:44:17.428Z,9.83
2023-01-04T04:45:17.532Z,9.83
2023-01-04T04:46:17.669Z,9.83
2023-01-04T04:47:17.705Z,9.83
2023-01-04T04:48:17.810Z,9.85
2023-01-04T04:49:17.880Z,9.85
2023-01-04T04:50:17.964Z,9.88
2023-01-04T04:51:18.056Z,9.91
2023-01-04T04:52:18.143Z,9.88
2023-01-04T04:53:18.222Z,9.88
2023-01-04T04:54:18.266Z,9.88
2023-01-04T04:55:18.357Z,9.89
2023-01-04T04:56:18.445Z,9.88
2023-01-04T04:57:18.511Z,9.89
2023-01-04T04:58:18.625Z,9.88
2023-01-04T04:59:18.705Z,9.89
2023-01-04T05:00:18.751Z,9.89
2023-01-04T05:01:18.935Z,9.89
2023-01-04T05:02:19.109Z,9.88
2023-01-04T05:03:19.061Z,9.91
2023-01-04T05:04:19.062Z,9.92
2023-01-04T05:05:19.117Z,9.93
2023-01-04T05:06:19.172Z,9.93
2023-01-04T05:07:19.263Z,9.93
2023-01-04T05:08:19.361Z,9.91
2023-01-04T05:09:19.420Z,9.89
2023-01-04T05:10:19.492Z,9.92
2023-01-04T05:11:19.563Z,9.93
2023-01-04T05:12:19.633Z,9.93
2023-01-04T05:13:19.724Z,9.93
2023-01-04T05:14:19.765Z,9.95
2023-01-04T05:15:19.836Z,9.96
2023-01-04T05:16:19.936Z,10.01
2023-01-04T05:17:20.020Z,10.02
2023-01-04T05:18:20.133Z,9.99
2023-01-04T05:19:20.211Z,9.96
2023-01-04T05:20:20.254Z,9.98
2023-01-04T05:21:20.585Z,9.96
2023-01-04T05:22:20.398Z,9.96
2023-01-04T05:23:20.506Z,9.96
2023-01-04T05:24:20.543Z,9.95
2023-01-04T05:25:20.626Z,9.95
2023-01-04T05:26:20.698Z,9.93
2023-01-04T05:27:20.814Z,9.93
2023-01-04T05:28:21.002Z,9.93
2023-01-04T05:29:20.990Z,9.92
2023-01-04T05:30:21.076Z,9.92
2023-01-04T05:31:21.213Z,9.92
2023-01-04T05:32:21.216Z,9.93
2023-01-04T05:33:21.296Z,9.96
2023-01-04T05:34:22.455Z,9.98
2023-01-04T05:35:21.451Z,9.98
2023-01-04T05:36:21.532Z,10.01
2023-01-04T05:37:21.612Z,10.01
2023-01-04T05:38:21.690Z,9.99
2023-01-04T05:39:21.774Z,10.06
2023-01-04T05:40:21.817Z,10.01
2023-01-04T05:41:21.901Z,10.04
2023-01-04T05:42:21.950Z,10.10
2023-01-04T05:43:22.076Z,10.10
2023-01-04T05:44:22.126Z,10.09
2023-01-04T05:45:22.220Z,10.07
2023-01-04T05:46:22.352Z,10.04
2023-01-04T05:47:22.345Z,10.04
2023-01-04T05:48:22.410Z,10.01
2023-01-04T05:49:22.467Z,10.01
2023-01-04T05:50:22.522Z,10.01
2023-01-04T05:51:22.591Z,9.96
2023-01-04T05:52:22.674Z,9.99
2023-01-04T05:53:22.734Z,9.99
2023-01-04T05:54:22.820Z,9.98
2023-01-04T05:55:22.913Z,9.93
2023-01-04T05:56:22.972Z,9.96
2023-01-04T05:57:23.069Z,9.96
2023-01-04T05:58:23.156Z,9.95
2023-01-04T05:59:23.181Z,9.92
2023-01-04T06:00:23.277Z,9.95
2023-01-04T06:01:23.435Z,9.93
2023-01-04T06:02:23.693Z,9.92
2023-01-04T06:03:23.686Z,9.91
2023-01-04T06:04:23.618Z,9.93
2023-01-04T06:05:23.711Z,9.93
2023-01-04T06:06:23.784Z,9.96
2023-01-04T06:07:23.872Z,9.98
2023-01-04T06:08:24.083Z,10.02
2023-01-04T06:09:24.019Z,10.04
2023-01-04T06:10:24.098Z,10.02
2023-01-04T06:11:27.721Z,9.98
2023-01-04T06:12:24.299Z,9.96
2023-01-04T06:13:24.474Z,9.96
2023-01-04T06:14:24.453Z,9.95
2023-01-04T06:15:24.536Z,9.95
2023-01-04T06:16:24.757Z,9.95
2023-01-04T06:17:24.695Z,9.95
2023-01-04T06:18:24.778Z,9.96
2023-01-04T06:19:24.830Z,9.95
2023-01-04T06:20:24.905Z,9.93
2023-01-04T06:21:24.988Z,9.96
2023-01-04T06:22:25.059Z,9.98
2023-01-04T06:23:25.180Z,9.98
2023-01-04T06:24:25.251Z,9.98
2023-01-04T06:25:25.308Z,9.93
2023-01-04T06:26:25.379Z,9.96
2023-01-04T06:27:25.454Z,9.98
2023-01-04T06:28:25.569Z,9.99
2023-01-04T06:29:25.629Z,10.06
2023-01-04T06:30:25.717Z,10.07
2023-01-04T06:31:25.807Z,10.13
2023-01-04T06:32:25.857Z,10.13
2023-01-04T06:33:25.944Z,10.14
2023-01-04T06:34:30.929Z,10.14
2023-01-04T06:35:26.068Z,10.14
2023-01-04T06:36:26.139Z,10.13
2023-01-04T06:37:26.203Z,10.16
2023-01-04T06:38:26.292Z,10.11
2023-01-04T06:39:26.349Z,10.10
2023-01-04T06:40:26.440Z,10.10
2023-01-04T06:41:26.505Z,10.07
2023-01-04T06:42:26.613Z,10.09
2023-01-04T06:43:26.653Z,10.13
2023-01-04T06:44:26.717Z,10.16
2023-01-04T06:45:26.771Z,10.18
2023-01-04T06:46:26.912Z,10.18
2023-01-04T06:47:26.918Z,10.17
2023-01-04T06:48:27.012Z,10.18
2023-01-04T06:49:27.088Z,10.20
2023-01-04T06:50:27.163Z,10.20
2023-01-04T06:51:27.210Z,10.20
2023-01-04T06:52:27.315Z,10.22
2023-01-04T06:53:27.410Z,10.18
2023-01-04T06:54:27.501Z,10.18
2023-01-04T06:55:27.549Z,10.17
2023-01-04T06:56:27.655Z,10.20
2023-01-04T06:57:27.751Z,10.24
2023-01-04T06:58:27.829Z,10.25
2023-01-04T06:59:27.884Z,10.29
2023-01-04T07:00:27.993Z,10.31
2023-01-04T07:01:28.194Z,10.31
2023-01-04T07:02:28.471Z,10.34
2023-01-04T07:03:28.260Z,10.36
2023-01-04T07:04:28.400Z,10.36
2023-01-04T07:05:28.413Z,10.36
2023-01-04T07:06:28.477Z,10.38
2023-01-04T07:07:28.545Z,10.35
2023-01-04T07:08:28.646Z,10.32
2023-01-04T07:09:28.688Z,10.31
2023-01-04T07:10:28.791Z,10.28
2023-01-04T07:11:28.846Z,10.26
2023-01-04T07:12:28.936Z,10.25
2023-01-04T07:13:29.016Z,10.29
2023-01-04T07:14:29.089Z,10.32
2023-01-04T07:15:39.220Z,10.35
2023-01-04T07:16:29.321Z,10.32
2023-01-04T07:17:30.113Z,10.34
2023-01-04T07:18:29.394Z,10.34
2023-01-04T07:19:29.449Z,10.28
2023-01-04T07:20:29.560Z,10.24
2023-01-04T07:21:29.598Z,10.25
2023-01-04T07:22:29.681Z,10.28
2023-01-04T07:23:29.748Z,10.25
2023-01-04T07:24:30.743Z,10.25
2023-01-04T07:25:29.892Z,10.26
2023-01-04T07:26:29.985Z,10.25
2023-01-04T07:27:30.037Z,10.26
2023-01-04T07:28:30.147Z,10.28
2023-01-04T07:29:30.214Z,10.29
2023-01-04T07:30:30.466Z,10.28
2023-01-04T07:31:30.400Z,10.28
2023-01-04T07:32:30.428Z,10.26
2023-01-04T07:33:30.507Z,10.26
2023-01-04T07:34:30.556Z,10.28
2023-01-04T07:35:30.611Z,10.29
2023-01-04T07:36:30.696Z,10.29
2023-01-04T07:37:30.788Z,10.28
2023-01-04T07:38:30.879Z,10.29
2023-01-04T07:39:30.937Z,10.26
2023-01-04T07:40:31.022Z,10.28
2023-01-04T07:41:31.103Z,10.26
2023-01-04T07:42:31.194Z,10.28
2023-01-04T07:43:31.295Z,10.29
2023-01-04T07:44:31.401Z,10.34
2023-01-04T07:45:31.428Z,10.38
2023-01-04T07:46:31.629Z,10.42
2023-01-04T07:47:31.595Z,10.42
2023-01-04T07:48:31.699Z,10.43
2023-01-04T07:49:31.779Z,10.46
2023-01-04T07:50:31.832Z,10.51
2023-01-04T07:51:31.920Z,10.51
2023-01-04T07:52:31.971Z,10.57
2023-01-04T07:53:32.065Z,10.55
2023-01-04T07:54:32.116Z,10.54
2023-01-04T07:55:32.219Z,10.54
2023-01-04T07:56:32.315Z,10.52
2023-01-04T07:57:32.390Z,10.52
2023-01-04T07:58:32.475Z,10.54
2023-01-04T07:59:32.540Z,10.52
2023-01-04T08:00:32.609Z,10.54
2023-01-04T08:01:32.809Z,10.55
2023-01-04T08:02:32.950Z,10.55
2023-01-04T08:03:32.872Z,10.54
2023-01-04T08:04:35.363Z,10.52
2023-01-04T08:05:33.005Z,10.54
2023-01-04T08:06:33.057Z,10.57
2023-01-04T08:07:33.135Z,10.55
2023-01-04T08:08:33.227Z,10.57
2023-01-04T08:09:33.288Z,10.60
2023-01-04T08:10:33.367Z,10.58
2023-01-04T08:11:33.465Z,10.62
2023-01-04T08:12:33.528Z,10.62
2023-01-04T08:13:33.617Z,10.65
2023-01-04T08:14:33.667Z,10.63
2023-01-04T08:15:33.825Z,10.63
2023-01-04T08:16:33.984Z,10.63
2023-01-04T08:17:33.880Z,10.63
2023-01-04T08:18:33.959Z,10.62
2023-01-04T08:19:34.028Z,10.62
2023-01-04T08:20:34.084Z,10.63
2023-01-04T08:21:34.157Z,10.63
2023-01-04T08:22:34.229Z,10.65
2023-01-04T08:23:34.334Z,10.65
2023-01-04T08:24:34.392Z,10.68
2023-01-04T08:25:34.485Z,10.70
2023-01-04T08:26:34.544Z,10.72
2023-01-04T08:27:34.626Z,10.75
2023-01-04T08:28:34.707Z,10.75
2023-01-04T08:29:35.525Z,10.76
2023-01-04T08:30:34.809Z,10.80
2023-01-04T08:31:34.920Z,10.81
2023-01-04T08:32:34.942Z,10.84
2023-01-04T08:33:35.036Z,10.86
2023-01-04T08:34:35.094Z,10.87
2023-01-04T08:35:35.166Z,10.86
2023-01-04T08:36:35.220Z,10.90
2023-01-04T08:37:35.364Z,10.90
2023-01-04T08:39:35.525Z,10.91
2023-01-04T08:40:58.831Z,10.93
2023-01-04T08:42:35.734Z,10.93
2023-01-04T08:43:35.825Z,10.95
2023-01-04T08:44:35.928Z,10.98
2023-01-04T08:45:35.959Z,10.95
2023-01-04T08:46:36.053Z,10.98
2023-01-04T08:47:36.089Z,11.01
2023-01-04T08:48:36.171Z,11.02
2023-01-04T08:49:36.233Z,11.05
2023-01-04T08:50:36.293Z,11.06
2023-01-04T08:51:36.378Z,11.06
2023-01-04T08:52:36.439Z,11.08
2023-01-04T08:53:36.559Z,11.09
2023-01-04T08:54:36.604Z,11.11
2023-01-04T08:55:36.704Z,11.13
2023-01-04T08:56:36.755Z,11.12
2023-01-04T08:57:36.841Z,11.16
2023-01-04T08:58:36.923Z,11.17
2023-01-04T08:59:36.992Z,11.16
2023-01-04T09:00:37.059Z,11.13
2023-01-04T09:01:37.310Z,11.16
2023-01-04T09:02:37.425Z,11.20
2023-01-04T09:03:37.338Z,11.24
2023-01-04T09:04:37.535Z,11.23
2023-01-04T09:05:37.472Z,11.24
2023-01-04T09:06:37.523Z,11.27
2023-01-04T09:07:37.604Z,11.27
2023-01-04T09:08:37.673Z,11.30
2023-01-04T09:09:37.737Z,11.33
2023-01-04T09:10:37.801Z,11.33
2023-01-04T09:11:37.875Z,11.35
2023-01-04T09:12:37.927Z,11.36
2023-01-04T09:13:38.034Z,11.39
2023-01-04T09:14:38.078Z,11.41
2023-01-04T09:15:38.250Z,11.44
2023-01-04T09:16:38.519Z,11.46
2023-01-04T09:17:51.889Z,11.45
2023-01-04T09:18:38.418Z,11.48
2023-01-04T09:19:38.498Z,11.49
2023-01-04T09:20:38.548Z,11.53
2023-01-04T09:21:38.696Z,11.54
2023-01-04T09:22:38.708Z,11.54
2023-01-04T09:23:38.818Z,11.56
2023-01-04T09:24:38.870Z,11.57
2023-01-04T09:25:38.995Z,11.59
2023-01-04T09:26:39.034Z,11.60
2023-01-04T09:27:39.128Z,11.60
2023-01-04T09:28:39.251Z,11.63
2023-01-04T09:29:39.288Z,11.63
2023-01-04T09:30:39.337Z,11.64
2023-01-04T09:31:39.440Z,11.63
2023-01-04T09:32:39.507Z,11.66
2023-01-04T09:34:12.253Z,11.66
2023-01-04T09:34:39.668Z,11.66
2023-01-04T09:35:39.726Z,11.70
2023-01-04T09:36:39.790Z,11.75
2023-01-04T09:37:39.855Z,11.75
2023-01-04T09:38:39.924Z,11.77
2023-01-04T09:39:40.005Z,11.78
2023-01-04T09:40:40.055Z,11.84
2023-01-04T09:41:40.141Z,11.85
2023-01-04T09:42:40.193Z,11.84
2023-01-04T09:43:40.289Z,11.84
2023-01-04T09:45:21.559Z,11.87
2023-01-04T09:45:40.441Z,11.93
2023-01-04T09:46:40.594Z,11.98
2023-01-04T09:47:40.568Z,12.00
2023-01-04T09:48:40.629Z,12.01
2023-01-04T09:49:40.712Z,12.03
2023-01-04T09:50:40.761Z,12.04
2023-01-04T09:51:40.844Z,12.03
2023-01-04T09:52:40.903Z,12.01
2023-01-04T09:53:41.006Z,12.03
2023-01-04T09:54:41.060Z,11.98
2023-01-04T09:55:41.849Z,11.97
2023-01-04T09:56:41.212Z,11.96
2023-01-04T09:57:41.324Z,11.96
2023-01-04T09:58:41.388Z,11.97
2023-01-04T09:59:41.469Z,11.98
2023-01-04T10:00:43.945Z,12.00
2023-01-04T10:01:41.783Z,11.97
2023-01-04T10:02:41.811Z,12.00
2023-01-04T10:03:41.866Z,12.00
2023-01-04T10:04:41.794Z,12.00
2023-01-04T10:05:41.895Z,12.01
2023-01-04T10:06:41.949Z,12.04
2023-01-04T10:07:42.041Z,12.04
2023-01-04T10:08:42.111Z,12.05
2023-01-04T10:09:42.174Z,12.04
2023-01-04T10:10:42.226Z,12.05
2023-01-04T10:11:42.308Z,12.07
2023-01-04T10:12:42.368Z,12.04
2023-01-04T10:13:42.464Z,12.01
2023-01-04T10:14:42.513Z,12.03
2023-01-04T10:15:42.596Z,12.07
2023-01-04T10:19:50.486Z,12.08
2023-01-04T10:21:31.958Z,12.04
2023-01-04T10:21:56.355Z,12.07
2023-01-04T10:22:56.363Z,12.12
2023-01-04T10:23:56.419Z,12.13
2023-01-04T10:24:56.488Z,12.13
2023-01-04T10:25:56.569Z,12.18
2023-01-04T10:26:56.640Z,12.19
2023-01-04T10:27:56.691Z,12.22
2023-01-04T10:28:56.779Z,12.25
2023-01-04T10:29:56.834Z,12.25
2023-01-04T10:30:57.028Z,12.23
2023-01-04T10:31:57.027Z,12.25
2023-01-04T10:32:57.070Z,12.26
2023-01-04T10:33:57.127Z,12.30
2023-01-04T10:34:57.230Z,12.30
2023-01-04T10:35:57.312Z,12.31
2023-01-04T10:36:57.387Z,12.29
2023-01-04T10:37:57.440Z,12.29
2023-01-04T10:38:57.527Z,12.25
2023-01-04T10:39:57.610Z,12.23
2023-01-04T10:40:57.723Z,12.19
2023-01-04T10:41:57.771Z,12.19
2023-01-04T10:42:57.905Z,12.16
2023-01-04T10:44:13.747Z,12.18
2023-01-04T10:45:01.901Z,12.15
2023-01-04T10:45:58.130Z,12.12
2023-01-04T10:46:58.301Z,12.11
2023-01-04T10:47:58.246Z,12.08
2023-01-04T10:48:58.336Z,12.05
2023-01-04T10:49:58.391Z,12.07
2023-01-04T10:51:04.980Z,12.04
2023-01-04T10:51:58.540Z,12.04
2023-01-04T10:52:58.605Z,12.04
2023-01-04T10:53:58.656Z,12.03
2023-01-04T10:54:58.738Z,12.03
2023-01-04T10:56:24.254Z,12.03
2023-01-04T10:57:02.398Z,12.05
2023-01-04T10:57:58.991Z,12.03
2023-01-04T10:58:59.100Z,12.05
2023-01-04T10:59:59.147Z,12.01
2023-01-04T11:00:59.287Z,12.03
2023-01-04T11:01:59.491Z,12.03
2023-01-04T11:03:04.779Z,12.01
2023-01-04T11:03:59.478Z,12.00
2023-01-04T11:04:59.568Z,11.97
2023-01-04T11:05:59.627Z,11.97
2023-01-04T11:06:59.699Z,11.97
2023-01-04T11:07:59.750Z,11.97
2023-01-04T11:08:59.831Z,11.97
2023-01-04T11:09:59.886Z,11.97
2023-01-04T11:10:59.981Z,11.97
2023-01-04T11:12:00.032Z,11.98
2023-01-04T11:13:00.117Z,11.97
2023-01-04T11:14:00.184Z,11.98
2023-01-04T11:15:00.258Z,11.98
2023-01-04T11:16:00.444Z,11.98
2023-01-04T11:17:00.537Z,11.98
2023-01-04T11:18:00.479Z,11.98
2023-01-04T11:19:00.561Z,11.96
2023-01-04T11:20:00.624Z,11.94
2023-01-04T11:21:00.718Z,11.96
2023-01-04T11:22:00.768Z,11.96
2023-01-04T11:23:00.910Z,11.96
2023-01-04T11:24:21.917Z,11.96
2023-01-04T11:25:33.617Z,11.94
2023-01-04T11:26:01.128Z,11.94
2023-01-04T11:27:01.237Z,11.88
2023-01-04T11:28:01.271Z,11.88
2023-01-04T11:29:01.365Z,11.93
2023-01-04T11:30:01.436Z,11.88
2023-01-04T11:31:01.541Z,11.90
2023-01-04T11:32:01.715Z,11.88
2023-01-04T11:33:01.686Z,11.87
2023-01-04T11:34:01.778Z,11.88
2023-01-04T11:35:01.836Z,11.90
2023-01-04T11:36:01.897Z,11.90
2023-01-04T11:37:01.973Z,11.90
2023-01-04T11:38:02.029Z,11.94
2023-01-04T11:39:02.112Z,11.96
2023-01-04T11:40:02.190Z,11.96
2023-01-04T11:41:02.280Z,11.96
2023-01-04T11:42:03.571Z,11.97
2023-01-04T11:43:02.412Z,11.98
2023-01-04T11:44:02.479Z,12.00
2023-01-04T11:45:02.567Z,11.98
2023-01-04T11:46:02.727Z,11.98
2023-01-04T11:47:02.711Z,11.98
2023-01-04T11:48:02.765Z,12.00
2023-01-04T11:49:02.872Z,12.03
2023-01-04T11:50:02.922Z,12.03
2023-01-04T11:51:03.039Z,12.01
2023-01-04T11:52:03.076Z,12.04
2023-01-04T11:53:03.171Z,12.08
2023-01-04T11:54:03.236Z,12.11
2023-01-04T11:55:03.321Z,12.08
2023-01-04T11:56:03.393Z,12.13
2023-01-04T11:57:10.755Z,12.13
2023-01-04T11:58:03.552Z,12.16
2023-01-04T11:59:03.640Z,12.19
2023-01-04T12:00:03.693Z,12.22
2023-01-04T12:01:03.811Z,12.25
2023-01-04T12:02:03.994Z,12.26
2023-01-04T12:03:04.018Z,12.30
2023-01-04T12:04:04.006Z,12.33
2023-01-04T12:05:04.085Z,12.31
2023-01-04T12:06:04.162Z,12.33
2023-01-04T12:07:04.213Z,12.33
2023-01-04T12:08:04.299Z,12.34
2023-01-04T12:09:04.362Z,12.34
2023-01-04T12:10:04.434Z,12.38
2023-01-04T12:11:04.537Z,12.40
2023-01-04T12:12:04.605Z,12.40
2023-01-04T12:13:04.656Z,12.40
2023-01-04T12:14:04.749Z,12.40
2023-01-04T12:15:04.805Z,12.41
2023-01-04T12:16:04.902Z,12.41
2023-01-04T12:17:04.962Z,12.43
2023-01-04T12:18:05.085Z,12.41
2023-01-04T12:19:05.109Z,12.41
2023-01-04T12:20:05.233Z,12.41
2023-01-04T12:21:05.285Z,12.40
2023-01-04T12:22:05.340Z,12.43
2023-01-04T12:23:05.388Z,12.44
2023-01-04T12:24:05.471Z,12.41
2023-01-04T12:25:05.528Z,12.44
2023-01-04T12:26:05.633Z,12.48
2023-01-04T12:27:05.689Z,12.43
2023-01-04T12:28:05.771Z,12.44
2023-01-04T12:29:05.827Z,12.43
2023-01-04T12:30:05.912Z,12.43
2023-01-04T12:31:06.024Z,12.46
2023-01-04T12:32:06.051Z,12.43
2023-01-04T12:33:06.103Z,12.41
2023-01-04T12:34:06.191Z,12.41
2023-01-04T12:35:06.243Z,12.43
2023-01-04T12:36:06.356Z,12.40
2023-01-04T12:37:06.466Z,12.40
2023-01-04T12:38:06.491Z,12.43
2023-01-04T12:39:06.556Z,12.41
2023-01-04T12:40:06.627Z,12.41
2023-01-04T12:41:06.707Z,12.46
2023-01-04T12:42:06.761Z,12.46
2023-01-04T12:43:06.836Z,12.48
2023-01-04T12:44:06.915Z,12.46
2023-01-04T12:45:07.024Z,12.44
2023-01-04T12:46:07.198Z,12.44
2023-01-04T12:47:07.188Z,12.43
2023-01-04T12:48:07.246Z,12.44
2023-01-04T12:49:07.302Z,12.43
2023-01-04T12:50:07.393Z,12.44
2023-01-04T12:51:30.213Z,12.43
2023-01-04T12:52:29.518Z,12.46
2023-01-04T12:53:28.946Z,12.48
2023-01-04T12:54:07.672Z,12.49
2023-01-04T12:55:07.732Z,12.52
2023-01-04T12:56:07.829Z,12.52
2023-01-04T12:57:07.893Z,12.52
2023-01-04T12:58:08.028Z,12.52
2023-01-04T12:59:25.295Z,12.52
2023-01-04T13:00:08.141Z,12.54
2023-01-04T13:01:08.364Z,12.55
2023-01-04T13:02:08.460Z,12.55
2023-01-04T13:03:08.609Z,12.59
2023-01-04T13:04:08.437Z,12.61
2023-01-04T13:05:54.061Z,12.61
2023-01-04T13:06:08.586Z,12.62
2023-01-04T13:07:08.656Z,12.63
2023-01-04T13:08:08.721Z,12.67
2023-01-04T13:09:08.772Z,12.69
2023-01-04T13:10:08.995Z,12.69
2023-01-04T13:11:08.965Z,12.69